Relevés horaires Matro (Suisse)


Relevés horaires à Matro - Mercredi 01 Juin 2022
Heure UTC1 Température [°C] Vent [km/h] Hum. [%] Pres.4 [hPa] Visi. [Km] Nébu. [octa] Préc.5 [mm] Cond.
2m. Res. Ros. Dir.2 Vit. Moy. Raf.3
23:00 6.7 4.1 5.3 NNE 13.0 -- 18.5 91 850(0.4/3h) -- -- -- --
22:00 6.9 3.4 5.1 S 20.4 -- 24.1 88 850(0.2/3h) -- -- -- --
21:00 6.4 3.8 4.4 S 13.0 -- 16.7 87 850(0.4/3h) -- -- -- --
20:00 6.8 5 3.9 N 9.3 -- 16.7 82 850(0.4/3h) -- -- -- --
19:00 6.4 5.5 4.6 O 5.6 -- 16.7 88 850(0.7/3h) -- -- -- --
18:00 6.7 4.8 4.5 SSO 9.3 -- 44.4 86 850(0.2/3h) -- -- -- --
17:00 6.9 5.5 4.8 ESE 7.4 -- 16.7 86 850(0.5/3h) -- -- -- --
16:00 6.9 4.1 5.6 SE 14.8 -- 20.4 91 850(0.6/3h) -- -- -- --
15:00 6.4 3.2 4.6 S 16.7 -- 44.4 88 850(0.5/3h) -- -- -- --
14:00 6.2 1.6 5.7 S 29.6 -- 44.4 97 850(0.0/3h) -- -- -- --
13:00 7.1 3 5.6 SSE 27.8 -- 38.9 90 850(0.0/3h) -- -- -- --
12:00 7.4 3.7 4.2 SSE 24.1 -- 33.3 80 850(0.4/3h) -- -- -- --
11:00 7.6 4.5 4.5 SSE 18.5 -- 31.5 81 850(0.7/3h) -- -- -- --
10:00 7.5 4.4 4.8 SSE 18.5 -- 27.8 83 850(0.8/3h) -- -- -- --
09:00 7.3 4.9 3.9 SSE 13.0 -- 18.5 79 850(1.0/3h) -- -- -- --
08:00 6.8 4.6 2.7 SE 11.1 -- 16.7 75 850(0.8/3h) -- -- -- --
07:00 6.3 5.3 3.8 SE 5.6 -- 16.7 84 850(0.8/3h) -- -- -- --
06:00 5.9 4.9 3.8 N 5.6 -- 18.5 86 850(0.6/3h) -- -- -- --
05:00 5.8 4.8 2.1 N 5.6 -- 11.1 77 850(0.2/3h) -- -- -- --
04:00 5.0 3.3 2.6 N 7.4 -- 13.0 84 850(-0.3/3h) -- -- -- --
03:00 4.8 2.2 2.8 NNO 11.1 -- 18.5 87 850(-0.5/3h) -- -- -- --
02:00 4.8 3.6 2.8 NNO 5.6 -- 9.3 87 850(-0.4/3h) -- -- -- --
01:00 4.9 3.7 3.0 ESE 5.6 -- 11.1 87 850(0.0/3h) -- -- -- --
00:00 4.7 4.7 3.3 N 1.9 -- 14.8 91 850(-0.3/3h) -- -- -- --

1 Coordinated Universal Time. Actuellement il est 05:00 locale et 03:00 UTC.

2 Le vent souffle depuis la direction indiquée vers la direction oposée.

3 Les rafales max. sont disponible 40 min après l'heure du relevé.

4 Pour les stations d'altitude (plus de 600m) le géopotentiel du niveau le plus proche de la pression obligatoire est indiqué.

5 Les stations disposant d'un diffuseur peuvent indiquer "trace". Cela signifie que des précipitations ont touchés le sol mais que la quantité est inférieure à 0.1 mm.

Copyright

Les données affichées sur cette page sont la propriété exclusive de Météo Suisse.

Récapitulatif de la journée
Température [°C] Vent [km/h] Ensoleillement4 [h] Precipitations totale5 [mm] Pression [Hpa]
Min1 Max.2 Moy.3 Max. Min Max.
4.1 8.3 0 44.4 6 h 12 min 0 850.0 850.0

1 Température minimale relevée entre 18:00 UTC la veille et 18:00 UTC le jour donné.

2 Température maximale relevée entre 06:00 UTC le jour donné et 06:00 UTC le lendemain.

3 Vent moyen de la journée basé sur les relevés horaires.

4 Ensoleillement en heures relevé entre 06:00 UTC la veille et 06:00 UTC le jour donné.

5 Précipitations totales tombées entre 06:00 UTC la jour donné et 06:00 UTC le lendemain.

Graphiques horaires